sensor_id;sensor_type;location;lat;lon;timestamp;P1;durP1;ratioP1;P2;durP2;ratioP2
59416;SDS011;45222;52.458;20.914;2023-04-19T00:41:23;8.40;;;5.70;;
59416;SDS011;45222;52.458;20.914;2023-04-19T00:45:13;7.90;;;5.70;;
59416;SDS011;45222;52.458;20.914;2023-04-19T00:49:01;8.30;;;6.30;;
59416;SDS011;45222;52.458;20.914;2023-04-19T00:52:49;8.70;;;6.40;;
59416;SDS011;45222;52.458;20.914;2023-04-19T00:56:39;9.40;;;5.70;;
59416;SDS011;45222;52.458;20.914;2023-04-19T01:00:29;9.20;;;6.50;;
59416;SDS011;45222;52.458;20.914;2023-04-19T01:04:17;10.00;;;7.00;;
59416;SDS011;45222;52.458;20.914;2023-04-19T01:08:07;8.60;;;6.50;;
59416;SDS011;45222;52.458;20.914;2023-04-19T01:11:54;9.60;;;6.20;;
59416;SDS011;45222;52.458;20.914;2023-04-19T01:15:42;10.60;;;6.80;;
59416;SDS011;45222;52.458;20.914;2023-04-19T01:19:30;8.70;;;6.10;;
59416;SDS011;45222;52.458;20.914;2023-04-19T01:23:18;9.00;;;6.90;;
59416;SDS011;45222;52.458;20.914;2023-04-19T01:27:06;9.50;;;6.40;;
59416;SDS011;45222;52.458;20.914;2023-04-19T01:30:55;8.90;;;6.40;;
59416;SDS011;45222;52.458;20.914;2023-04-19T01:34:43;9.10;;;6.40;;
59416;SDS011;45222;52.458;20.914;2023-04-19T01:38:31;8.60;;;6.40;;
59416;SDS011;45222;52.458;20.914;2023-04-19T01:42:20;9.50;;;6.70;;
59416;SDS011;45222;52.458;20.914;2023-04-19T01:46:07;9.00;;;6.80;;
59416;SDS011;45222;52.458;20.914;2023-04-19T01:49:56;8.50;;;6.20;;
59416;SDS011;45222;52.458;20.914;2023-04-19T01:53:44;10.50;;;7.50;;
59416;SDS011;45222;52.458;20.914;2023-04-19T01:57:36;9.70;;;7.00;;
59416;SDS011;45222;52.458;20.914;2023-04-19T02:01:24;9.20;;;6.80;;
59416;SDS011;45222;52.458;20.914;2023-04-19T02:05:11;8.80;;;6.20;;
59416;SDS011;45222;52.458;20.914;2023-04-19T02:09:00;8.80;;;6.30;;
59416;SDS011;45222;52.458;20.914;2023-04-19T02:12:48;8.60;;;6.10;;
59416;SDS011;45222;52.458;20.914;2023-04-19T02:16:35;9.70;;;6.70;;
59416;SDS011;45222;52.458;20.914;2023-04-19T02:20:23;10.20;;;7.20;;
59416;SDS011;45222;52.458;20.914;2023-04-19T02:24:11;8.90;;;6.40;;
59416;SDS011;45222;52.458;20.914;2023-04-19T02:27:59;8.50;;;6.40;;
59416;SDS011;45222;52.458;20.914;2023-04-19T02:31:47;9.30;;;6.90;;
59416;SDS011;45222;52.458;20.914;2023-04-19T02:35:35;10.20;;;6.90;;
59416;SDS011;45222;52.458;20.914;2023-04-19T02:39:23;9.20;;;6.60;;
59416;SDS011;45222;52.458;20.914;2023-04-19T02:43:11;8.10;;;6.00;;
59416;SDS011;45222;52.458;20.914;2023-04-19T02:46:59;9.20;;;7.30;;
59416;SDS011;45222;52.458;20.914;2023-04-19T02:50:47;10.00;;;6.80;;
59416;SDS011;45222;52.458;20.914;2023-04-19T02:54:35;9.60;;;6.90;;
59416;SDS011;45222;52.458;20.914;2023-04-19T02:58:23;9.60;;;6.60;;
59416;SDS011;45222;52.458;20.914;2023-04-19T03:02:11;8.20;;;6.00;;
59416;SDS011;45222;52.458;20.914;2023-04-19T03:05:59;9.30;;;6.20;;
59416;SDS011;45222;52.458;20.914;2023-04-19T03:09:47;8.80;;;6.20;;
59416;SDS011;45222;52.458;20.914;2023-04-19T03:13:35;8.50;;;6.60;;
59416;SDS011;45222;52.458;20.914;2023-04-19T03:17:24;9.90;;;7.00;;
59416;SDS011;45222;52.458;20.914;2023-04-19T03:21:12;8.20;;;6.30;;
59416;SDS011;45222;52.458;20.914;2023-04-19T03:25:00;9.30;;;6.20;;
59416;SDS011;45222;52.458;20.914;2023-04-19T03:28:48;10.00;;;6.40;;
59416;SDS011;45222;52.458;20.914;2023-04-19T03:32:36;8.10;;;6.20;;
59416;SDS011;45222;52.458;20.914;2023-04-19T03:36:24;9.30;;;6.20;;
59416;SDS011;45222;52.458;20.914;2023-04-19T03:40:13;9.30;;;6.50;;
59416;SDS011;45222;52.458;20.914;2023-04-19T03:44:01;8.60;;;6.00;;
59416;SDS011;45222;52.458;20.914;2023-04-19T03:47:50;8.70;;;6.00;;
59416;SDS011;45222;52.458;20.914;2023-04-19T03:51:39;8.20;;;6.00;;
59416;SDS011;45222;52.458;20.914;2023-04-19T03:55:26;9.10;;;6.50;;
59416;SDS011;45222;52.458;20.914;2023-04-19T03:59:14;8.30;;;6.10;;
59416;SDS011;45222;52.458;20.914;2023-04-19T04:03:02;8.60;;;5.90;;
59416;SDS011;45222;52.458;20.914;2023-04-19T04:06:50;9.20;;;6.20;;
59416;SDS011;45222;52.458;20.914;2023-04-19T04:10:38;9.00;;;5.90;;
59416;SDS011;45222;52.458;20.914;2023-04-19T04:14:26;10.40;;;7.00;;
59416;SDS011;45222;52.458;20.914;2023-04-19T04:18:14;8.60;;;6.20;;
59416;SDS011;45222;52.458;20.914;2023-04-19T04:22:02;9.50;;;6.60;;
59416;SDS011;45222;52.458;20.914;2023-04-19T04:25:56;9.40;;;6.30;;
59416;SDS011;45222;52.458;20.914;2023-04-19T04:29:45;8.60;;;5.90;;
59416;SDS011;45222;52.458;20.914;2023-04-19T04:33:34;10.30;;;7.10;;
59416;SDS011;45222;52.458;20.914;2023-04-19T04:37:22;10.40;;;7.90;;
59416;SDS011;45222;52.458;20.914;2023-04-19T04:41:10;9.90;;;7.50;;
59416;SDS011;45222;52.458;20.914;2023-04-19T04:44:58;10.60;;;7.30;;
59416;SDS011;45222;52.458;20.914;2023-04-19T04:52:33;9.90;;;7.00;;
59416;SDS011;45222;52.458;20.914;2023-04-19T04:56:21;10.00;;;6.80;;
59416;SDS011;45222;52.458;20.914;2023-04-19T05:00:10;10.20;;;7.50;;
59416;SDS011;45222;52.458;20.914;2023-04-19T05:03:59;11.70;;;8.70;;
59416;SDS011;45222;52.458;20.914;2023-04-19T05:07:47;10.70;;;7.70;;
59416;SDS011;45222;52.458;20.914;2023-04-19T05:11:35;10.20;;;7.80;;
59416;SDS011;45222;52.458;20.914;2023-04-19T05:15:23;10.80;;;7.70;;
59416;SDS011;45222;52.458;20.914;2023-04-19T05:19:11;10.80;;;7.40;;
59416;SDS011;45222;52.458;20.914;2023-04-19T05:22:59;10.20;;;8.40;;
59416;SDS011;45222;52.458;20.914;2023-04-19T05:26:47;11.30;;;8.10;;
59416;SDS011;45222;52.458;20.914;2023-04-19T05:30:35;11.30;;;7.50;;
59416;SDS011;45222;52.458;20.914;2023-04-19T05:34:27;12.50;;;10.00;;
59416;SDS011;45222;52.458;20.914;2023-04-19T05:38:31;11.50;;;7.60;;
59416;SDS011;45222;52.458;20.914;2023-04-19T05:42:19;10.70;;;8.10;;
59416;SDS011;45222;52.458;20.914;2023-04-19T05:46:07;12.10;;;8.60;;
59416;SDS011;45222;52.458;20.914;2023-04-19T05:49:55;11.40;;;8.30;;
59416;SDS011;45222;52.458;20.914;2023-04-19T05:53:43;11.30;;;8.00;;
59416;SDS011;45222;52.458;20.914;2023-04-19T05:57:31;10.30;;;7.80;;
59416;SDS011;45222;52.458;20.914;2023-04-19T06:01:19;11.70;;;7.60;;
59416;SDS011;45222;52.458;20.914;2023-04-19T06:05:07;11.50;;;8.00;;
59416;SDS011;45222;52.458;20.914;2023-04-19T06:08:55;12.00;;;8.90;;
59416;SDS011;45222;52.458;20.914;2023-04-19T06:12:42;10.60;;;8.30;;
59416;SDS011;45222;52.458;20.914;2023-04-19T06:16:30;12.40;;;8.30;;
59416;SDS011;45222;52.458;20.914;2023-04-19T06:20:18;11.70;;;8.00;;
59416;SDS011;45222;52.458;20.914;2023-04-19T06:24:06;10.80;;;8.50;;
59416;SDS011;45222;52.458;20.914;2023-04-19T06:27:54;11.10;;;9.00;;
59416;SDS011;45222;52.458;20.914;2023-04-19T06:31:42;12.10;;;8.50;;
59416;SDS011;45222;52.458;20.914;2023-04-19T06:35:31;11.60;;;8.90;;
59416;SDS011;45222;52.458;20.914;2023-04-19T06:39:19;12.80;;;9.00;;
59416;SDS011;45222;52.458;20.914;2023-04-19T06:43:06;10.60;;;8.50;;
59416;SDS011;45222;52.458;20.914;2023-04-19T06:46:55;12.20;;;8.50;;
59416;SDS011;45222;52.458;20.914;2023-04-19T06:50:43;11.90;;;8.60;;
59416;SDS011;45222;52.458;20.914;2023-04-19T06:54:31;10.70;;;8.90;;
59416;SDS011;45222;52.458;20.914;2023-04-19T06:58:20;13.50;;;9.20;;
59416;SDS011;45222;52.458;20.914;2023-04-19T07:05:55;10.60;;;8.20;;
59416;SDS011;45222;52.458;20.914;2023-04-19T07:09:43;10.30;;;7.80;;
59416;SDS011;45222;52.458;20.914;2023-04-19T07:13:31;10.80;;;8.40;;
59416;SDS011;45222;52.458;20.914;2023-04-19T07:17:23;11.50;;;8.80;;
59416;SDS011;45222;52.458;20.914;2023-04-19T07:21:11;12.10;;;9.20;;
59416;SDS011;45222;52.458;20.914;2023-04-19T07:24:59;10.70;;;8.20;;
59416;SDS011;45222;52.458;20.914;2023-04-19T07:28:47;10.10;;;8.50;;
59416;SDS011;45222;52.458;20.914;2023-04-19T07:32:36;10.80;;;8.60;;
59416;SDS011;45222;52.458;20.914;2023-04-19T07:36:29;11.60;;;7.90;;
59416;SDS011;45222;52.458;20.914;2023-04-19T07:40:19;11.90;;;8.80;;
59416;SDS011;45222;52.458;20.914;2023-04-19T07:44:07;9.50;;;7.80;;
59416;SDS011;45222;52.458;20.914;2023-04-19T07:47:55;9.80;;;7.70;;
59416;SDS011;45222;52.458;20.914;2023-04-19T07:51:43;10.40;;;7.90;;
59416;SDS011;45222;52.458;20.914;2023-04-19T07:55:32;10.50;;;8.60;;
59416;SDS011;45222;52.458;20.914;2023-04-19T08:03:07;11.00;;;7.60;;
59416;SDS011;45222;52.458;20.914;2023-04-19T08:06:55;13.60;;;7.30;;
59416;SDS011;45222;52.458;20.914;2023-04-19T08:10:43;11.10;;;8.00;;
59416;SDS011;45222;52.458;20.914;2023-04-19T08:14:31;10.70;;;8.20;;
59416;SDS011;45222;52.458;20.914;2023-04-19T08:18:19;10.00;;;7.70;;
59416;SDS011;45222;52.458;20.914;2023-04-19T08:22:08;10.10;;;7.60;;
59416;SDS011;45222;52.458;20.914;2023-04-19T08:25:57;10.80;;;7.70;;
59416;SDS011;45222;52.458;20.914;2023-04-19T08:29:45;10.80;;;7.60;;
59416;SDS011;45222;52.458;20.914;2023-04-19T08:33:33;9.30;;;7.10;;
59416;SDS011;45222;52.458;20.914;2023-04-19T08:37:21;10.20;;;7.30;;
59416;SDS011;45222;52.458;20.914;2023-04-19T08:41:09;10.00;;;7.60;;
59416;SDS011;45222;52.458;20.914;2023-04-19T08:44:58;11.30;;;7.60;;
59416;SDS011;45222;52.458;20.914;2023-04-19T08:48:51;9.40;;;7.40;;
59416;SDS011;45222;52.458;20.914;2023-04-19T08:52:53;9.50;;;7.00;;
59416;SDS011;45222;52.458;20.914;2023-04-19T08:56:43;8.70;;;6.60;;
59416;SDS011;45222;52.458;20.914;2023-04-19T09:00:31;9.10;;;7.20;;
59416;SDS011;45222;52.458;20.914;2023-04-19T09:04:22;9.80;;;7.30;;
59416;SDS011;45222;52.458;20.914;2023-04-19T09:08:21;9.10;;;6.80;;
59416;SDS011;45222;52.458;20.914;2023-04-19T09:12:16;8.80;;;6.50;;
59416;SDS011;45222;52.458;20.914;2023-04-19T09:16:05;9.10;;;6.90;;
59416;SDS011;45222;52.458;20.914;2023-04-19T09:20:07;8.90;;;7.10;;
59416;SDS011;45222;52.458;20.914;2023-04-19T09:23:56;10.00;;;6.50;;
59416;SDS011;45222;52.458;20.914;2023-04-19T09:27:44;8.50;;;6.30;;
59416;SDS011;45222;52.458;20.914;2023-04-19T09:31:33;8.50;;;5.60;;
59416;SDS011;45222;52.458;20.914;2023-04-19T09:35:22;8.10;;;5.80;;
59416;SDS011;45222;52.458;20.914;2023-04-19T09:39:30;8.80;;;6.00;;
59416;SDS011;45222;52.458;20.914;2023-04-19T09:43:23;8.00;;;5.90;;
59416;SDS011;45222;52.458;20.914;2023-04-19T09:47:21;9.10;;;6.40;;
59416;SDS011;45222;52.458;20.914;2023-04-19T09:51:10;7.40;;;5.50;;
59416;SDS011;45222;52.458;20.914;2023-04-19T09:54:58;8.00;;;6.40;;
59416;SDS011;45222;52.458;20.914;2023-04-19T09:58:48;9.10;;;6.60;;
59416;SDS011;45222;52.458;20.914;2023-04-19T10:02:36;9.20;;;6.90;;
59416;SDS011;45222;52.458;20.914;2023-04-19T10:06:25;8.70;;;6.30;;
59416;SDS011;45222;52.458;20.914;2023-04-19T10:10:13;8.80;;;6.70;;
59416;SDS011;45222;52.458;20.914;2023-04-19T10:14:03;8.30;;;6.40;;
59416;SDS011;45222;52.458;20.914;2023-04-19T10:17:52;8.70;;;6.50;;
59416;SDS011;45222;52.458;20.914;2023-04-19T10:21:41;8.40;;;6.10;;
59416;SDS011;45222;52.458;20.914;2023-04-19T10:25:30;8.40;;;6.10;;
59416;SDS011;45222;52.458;20.914;2023-04-19T10:33:41;9.20;;;6.70;;
59416;SDS011;45222;52.458;20.914;2023-04-19T10:37:30;9.00;;;6.90;;
59416;SDS011;45222;52.458;20.914;2023-04-19T10:41:21;9.10;;;6.70;;
59416;SDS011;45222;52.458;20.914;2023-04-19T10:49:24;10.20;;;6.60;;
59416;SDS011;45222;52.458;20.914;2023-04-19T11:01:51;9.60;;;7.20;;
59416;SDS011;45222;52.458;20.914;2023-04-19T11:09:58;8.80;;;6.60;;
59416;SDS011;45222;52.458;20.914;2023-04-19T11:13:47;10.30;;;7.50;;
59416;SDS011;45222;52.458;20.914;2023-04-19T11:17:35;9.80;;;7.40;;
59416;SDS011;45222;52.458;20.914;2023-04-19T11:21:23;9.80;;;7.50;;
59416;SDS011;45222;52.458;20.914;2023-04-19T11:25:12;9.80;;;7.50;;
59416;SDS011;45222;52.458;20.914;2023-04-19T11:29:04;11.60;;;7.40;;
59416;SDS011;45222;52.458;20.914;2023-04-19T11:33:09;10.00;;;6.70;;
59416;SDS011;45222;52.458;20.914;2023-04-19T11:37:15;9.00;;;6.90;;
59416;SDS011;45222;52.458;20.914;2023-04-19T11:41:03;8.80;;;6.80;;
59416;SDS011;45222;52.458;20.914;2023-04-19T11:44:53;8.90;;;6.80;;
59416;SDS011;45222;52.458;20.914;2023-04-19T11:48:50;9.60;;;7.60;;
59416;SDS011;45222;52.458;20.914;2023-04-19T11:52:39;9.40;;;7.60;;
59416;SDS011;45222;52.458;20.914;2023-04-19T11:56:27;8.60;;;6.60;;
59416;SDS011;45222;52.458;20.914;2023-04-19T12:00:15;10.10;;;7.40;;
59416;SDS011;45222;52.458;20.914;2023-04-19T12:04:12;9.60;;;7.30;;
59416;SDS011;45222;52.458;20.914;2023-04-19T12:08:02;9.70;;;7.10;;
59416;SDS011;45222;52.458;20.914;2023-04-19T12:11:52;9.10;;;7.00;;
59416;SDS011;45222;52.458;20.914;2023-04-19T12:19:27;8.50;;;6.90;;
59416;SDS011;45222;52.458;20.914;2023-04-19T12:23:22;9.70;;;7.40;;
59416;SDS011;45222;52.458;20.914;2023-04-19T12:27:09;8.20;;;7.00;;
59416;SDS011;45222;52.458;20.914;2023-04-19T12:31:02;7.50;;;6.00;;
59416;SDS011;45222;52.458;20.914;2023-04-19T12:34:50;9.10;;;6.30;;
59416;SDS011;45222;52.458;20.914;2023-04-19T12:38:38;8.80;;;6.50;;
59416;SDS011;45222;52.458;20.914;2023-04-19T12:42:26;8.90;;;6.90;;
59416;SDS011;45222;52.458;20.914;2023-04-19T12:46:14;9.50;;;7.20;;
59416;SDS011;45222;52.458;20.914;2023-04-19T12:50:02;10.30;;;6.70;;
59416;SDS011;45222;52.458;20.914;2023-04-19T12:53:51;8.80;;;6.40;;
59416;SDS011;45222;52.458;20.914;2023-04-19T13:01:25;9.70;;;6.70;;
59416;SDS011;45222;52.458;20.914;2023-04-19T13:05:13;8.30;;;6.50;;
59416;SDS011;45222;52.458;20.914;2023-04-19T13:09:01;10.90;;;7.20;;
59416;SDS011;45222;52.458;20.914;2023-04-19T13:12:49;9.50;;;7.10;;
59416;SDS011;45222;52.458;20.914;2023-04-19T13:16:37;9.40;;;6.80;;
59416;SDS011;45222;52.458;20.914;2023-04-19T13:20:25;9.60;;;7.10;;
59416;SDS011;45222;52.458;20.914;2023-04-19T13:24:13;9.50;;;7.00;;
59416;SDS011;45222;52.458;20.914;2023-04-19T13:28:00;8.70;;;7.00;;
59416;SDS011;45222;52.458;20.914;2023-04-19T13:31:48;11.40;;;7.30;;
59416;SDS011;45222;52.458;20.914;2023-04-19T13:35:36;8.80;;;6.80;;
59416;SDS011;45222;52.458;20.914;2023-04-19T13:39:24;9.60;;;7.10;;
59416;SDS011;45222;52.458;20.914;2023-04-19T13:43:11;10.40;;;7.10;;
59416;SDS011;45222;52.458;20.914;2023-04-19T13:46:59;9.50;;;7.80;;
59416;SDS011;45222;52.458;20.914;2023-04-19T13:50:48;9.90;;;7.30;;
59416;SDS011;45222;52.458;20.914;2023-04-19T13:54:38;9.80;;;7.30;;
59416;SDS011;45222;52.458;20.914;2023-04-19T13:58:26;10.00;;;7.00;;
59416;SDS011;45222;52.458;20.914;2023-04-19T14:02:14;12.10;;;7.90;;
59416;SDS011;45222;52.458;20.914;2023-04-19T14:06:02;9.70;;;7.30;;
59416;SDS011;45222;52.458;20.914;2023-04-19T14:09:50;10.70;;;7.60;;
59416;SDS011;45222;52.458;20.914;2023-04-19T14:13:38;9.70;;;7.50;;
59416;SDS011;45222;52.458;20.914;2023-04-19T14:17:26;10.10;;;7.70;;
59416;SDS011;45222;52.458;20.914;2023-04-19T14:21:14;10.50;;;8.00;;
59416;SDS011;45222;52.458;20.914;2023-04-19T14:25:03;12.50;;;7.50;;
59416;SDS011;45222;52.458;20.914;2023-04-19T14:28:53;9.60;;;7.20;;
59416;SDS011;45222;52.458;20.914;2023-04-19T14:32:41;9.80;;;7.80;;
59416;SDS011;45222;52.458;20.914;2023-04-19T14:36:33;9.80;;;7.50;;
59416;SDS011;45222;52.458;20.914;2023-04-19T14:40:20;10.70;;;7.70;;
59416;SDS011;45222;52.458;20.914;2023-04-19T14:44:10;8.60;;;6.80;;
59416;SDS011;45222;52.458;20.914;2023-04-19T14:47:58;10.20;;;7.80;;
59416;SDS011;45222;52.458;20.914;2023-04-19T14:51:48;9.60;;;7.90;;
59416;SDS011;45222;52.458;20.914;2023-04-19T14:55:37;11.00;;;8.20;;
59416;SDS011;45222;52.458;20.914;2023-04-19T14:59:29;11.70;;;8.00;;
59416;SDS011;45222;52.458;20.914;2023-04-19T15:03:17;11.50;;;8.30;;
59416;SDS011;45222;52.458;20.914;2023-04-19T15:07:05;10.50;;;7.80;;
59416;SDS011;45222;52.458;20.914;2023-04-19T15:10:55;10.50;;;7.20;;
59416;SDS011;45222;52.458;20.914;2023-04-19T15:14:43;9.50;;;7.60;;
59416;SDS011;45222;52.458;20.914;2023-04-19T15:18:31;10.20;;;7.10;;
59416;SDS011;45222;52.458;20.914;2023-04-19T15:22:19;10.00;;;6.10;;
59416;SDS011;45222;52.458;20.914;2023-04-19T15:26:07;8.70;;;5.30;;
59416;SDS011;45222;52.458;20.914;2023-04-19T15:29:55;8.80;;;5.20;;
59416;SDS011;45222;52.458;20.914;2023-04-19T15:33:46;9.80;;;4.70;;
59416;SDS011;45222;52.458;20.914;2023-04-19T15:37:34;10.10;;;4.00;;
59416;SDS011;45222;52.458;20.914;2023-04-19T15:41:25;7.90;;;3.70;;
59416;SDS011;45222;52.458;20.914;2023-04-19T15:45:13;8.30;;;5.10;;
59416;SDS011;45222;52.458;20.914;2023-04-19T15:49:02;11.40;;;8.00;;
59416;SDS011;45222;52.458;20.914;2023-04-19T15:52:50;8.30;;;5.10;;
59416;SDS011;45222;52.458;20.914;2023-04-19T15:56:39;8.30;;;6.00;;
59416;SDS011;45222;52.458;20.914;2023-04-19T16:00:27;9.70;;;5.20;;
59416;SDS011;45222;52.458;20.914;2023-04-19T16:04:17;9.80;;;4.90;;
59416;SDS011;45222;52.458;20.914;2023-04-19T16:08:05;7.50;;;4.40;;
59416;SDS011;45222;52.458;20.914;2023-04-19T16:12:04;8.10;;;4.30;;
59416;SDS011;45222;52.458;20.914;2023-04-19T16:15:56;10.40;;;5.10;;
59416;SDS011;45222;52.458;20.914;2023-04-19T16:24:26;9.70;;;4.80;;
59416;SDS011;45222;52.458;20.914;2023-04-19T16:28:15;10.00;;;4.30;;
59416;SDS011;45222;52.458;20.914;2023-04-19T16:32:04;9.60;;;5.00;;
59416;SDS011;45222;52.458;20.914;2023-04-19T16:35:54;8.90;;;5.40;;
59416;SDS011;45222;52.458;20.914;2023-04-19T16:39:41;9.50;;;6.60;;
59416;SDS011;45222;52.458;20.914;2023-04-19T16:43:30;9.10;;;5.90;;
59416;SDS011;45222;52.458;20.914;2023-04-19T16:47:18;9.60;;;5.20;;
59416;SDS011;45222;52.458;20.914;2023-04-19T16:51:06;9.20;;;6.10;;
59416;SDS011;45222;52.458;20.914;2023-04-19T16:54:54;9.50;;;6.50;;
59416;SDS011;45222;52.458;20.914;2023-04-19T16:58:45;9.40;;;6.80;;
59416;SDS011;45222;52.458;20.914;2023-04-19T17:02:33;10.50;;;6.70;;
59416;SDS011;45222;52.458;20.914;2023-04-19T17:06:21;9.80;;;6.90;;
59416;SDS011;45222;52.458;20.914;2023-04-19T17:10:10;15.90;;;7.50;;
59416;SDS011;45222;52.458;20.914;2023-04-19T17:13:58;10.30;;;7.10;;
59416;SDS011;45222;52.458;20.914;2023-04-19T17:17:46;11.70;;;6.70;;
59416;SDS011;45222;52.458;20.914;2023-04-19T17:21:34;11.50;;;7.30;;
59416;SDS011;45222;52.458;20.914;2023-04-19T17:25:22;10.70;;;7.50;;
59416;SDS011;45222;52.458;20.914;2023-04-19T17:29:09;50.40;;;10.90;;
59416;SDS011;45222;52.458;20.914;2023-04-19T17:32:57;24.80;;;9.40;;
59416;SDS011;45222;52.458;20.914;2023-04-19T17:36:45;14.60;;;8.40;;
59416;SDS011;45222;52.458;20.914;2023-04-19T17:40:33;13.90;;;7.90;;
59416;SDS011;45222;52.458;20.914;2023-04-19T17:44:21;12.80;;;7.40;;
59416;SDS011;45222;52.458;20.914;2023-04-19T17:48:09;11.50;;;7.80;;
59416;SDS011;45222;52.458;20.914;2023-04-19T17:51:57;15.30;;;8.50;;
59416;SDS011;45222;52.458;20.914;2023-04-19T17:55:45;15.20;;;8.90;;
59416;SDS011;45222;52.458;20.914;2023-04-19T17:59:33;15.50;;;8.00;;
59416;SDS011;45222;52.458;20.914;2023-04-19T18:03:21;12.60;;;8.90;;
59416;SDS011;45222;52.458;20.914;2023-04-19T18:07:10;17.70;;;14.00;;
59416;SDS011;45222;52.458;20.914;2023-04-19T18:10:57;16.00;;;12.50;;
59416;SDS011;45222;52.458;20.914;2023-04-19T18:14:45;14.70;;;9.90;;
59416;SDS011;45222;52.458;20.914;2023-04-19T18:18:34;14.70;;;10.70;;
59416;SDS011;45222;52.458;20.914;2023-04-19T18:22:22;23.30;;;18.90;;
59416;SDS011;45222;52.458;20.914;2023-04-19T18:26:12;13.10;;;10.10;;
59416;SDS011;45222;52.458;20.914;2023-04-19T18:30:00;14.20;;;10.30;;
59416;SDS011;45222;52.458;20.914;2023-04-19T18:33:48;14.60;;;10.00;;
59416;SDS011;45222;52.458;20.914;2023-04-19T18:37:36;14.20;;;8.80;;
59416;SDS011;45222;52.458;20.914;2023-04-19T18:45:12;13.20;;;10.30;;
59416;SDS011;45222;52.458;20.914;2023-04-19T18:49:00;12.40;;;8.80;;
59416;SDS011;45222;52.458;20.914;2023-04-19T18:52:48;12.70;;;9.00;;
59416;SDS011;45222;52.458;20.914;2023-04-19T18:56:36;14.60;;;10.30;;
59416;SDS011;45222;52.458;20.914;2023-04-19T19:00:24;13.30;;;9.20;;
59416;SDS011;45222;52.458;20.914;2023-04-19T19:04:17;15.80;;;11.20;;
59416;SDS011;45222;52.458;20.914;2023-04-19T19:08:06;13.50;;;8.80;;
59416;SDS011;45222;52.458;20.914;2023-04-19T19:11:54;14.70;;;10.30;;
59416;SDS011;45222;52.458;20.914;2023-04-19T19:15:43;14.70;;;10.10;;
59416;SDS011;45222;52.458;20.914;2023-04-19T19:19:31;14.00;;;10.30;;
59416;SDS011;45222;52.458;20.914;2023-04-19T19:23:19;12.70;;;9.10;;
